Strona główna
METAR-TAF:

METAR-TAF

Lotnisko :

Port lotniczy Ajaccio-Campo dell'Oro

Ajaccio, Francja

Szerokość geograficzna: 41-55N, Długość geograficzna: 008-48E, wysokość: 6 m

Aktualna obserwacja pogody

Raport powstał 42 minut temu, godzina 04:30 UTC
Wiatr 5 kt od północny wschód
Temperatura 18°C
Wilgotność 83%
Ciśnienie 1016 hPa
Widzialność 10 km lub więcej
Brak chmur poniżej 1500 m i brak chmur cumulonimbus

METAR: LFKJ 200430Z AUTO 04005KT CAVOK 18/15 Q1016 NOSIG

czas: 07:12 (05:12 UTC)

Prognoza

Raport powstał 3 godziny i 12 minut temu, godzina 02:00 UTC
Prognoza ważna od 20 godzina 03 UTC do 21 godzina 03 UTC
Wiatr 10 kt od północny wschód
Widzialność 10 km lub więcej
Brak chmur poniżej 1500 m i brak chmur cumulonimbus
Prawdopodobieństwo 30% :
Przejściowo
od 21 godzina 00 UTC do 21 godzina 03 UTC
Przerywane chmury na wysokości 800 ft

TAF: LFKJ 200200Z 2003/2103 05010KT CAVOK PROB30 TEMPO 2100/2103 BKN008

Obserwacja i prognoza pogody dla ponad 4000 lotnisk (raport METAR i TAF).

Dostępne stacje oznaczono żółtymi i czerwonymi punktami na mapie.

Najedź kursorem aby zobaczyć nazwę stacji.

Kliknij aby zobaczyć obserwacje i prognozy pogody.

Aby zmienić mapę: kliknij na zielony przycisk z czarnym krzyżykiem, aby powiększyć; na zielony przycisk z myślnikiem, aby pomniejszyć; na zielone strzałki, aby przejść do map sąsiednich.


METAR-TAF: